createdAt,value
2022-10-26T00:01:36.339Z,98120.78
2022-10-26T00:04:06.443Z,98115.75
2022-10-26T00:06:34.878Z,98122.78
2022-10-26T00:09:05.110Z,98118.19
2022-10-26T00:11:34.697Z,98113.56
2022-10-26T00:14:03.587Z,98111.31
2022-10-26T00:16:32.050Z,98134.28
2022-10-26T00:19:00.457Z,98132.91
2022-10-26T00:21:29.625Z,98128.66
2022-10-26T00:24:00.417Z,98125.81
2022-10-26T00:26:30.217Z,98133.25
2022-10-26T00:28:58.709Z,98122.19
2022-10-26T00:31:27.642Z,98127.81
2022-10-26T00:33:58.211Z,98129.44
2022-10-26T00:36:27.688Z,98124.63
2022-10-26T00:38:58.948Z,98119.16
2022-10-26T00:41:32.153Z,98127.66
2022-10-26T00:44:01.184Z,98131.72
2022-10-26T00:46:36.498Z,98129.28
2022-10-26T00:49:14.631Z,98130.28
2022-10-26T00:51:50.254Z,98122.44
2022-10-26T00:54:22.111Z,98125.03
2022-10-26T00:56:56.878Z,98118.81
2022-10-26T00:59:25.880Z,98121.63
2022-10-26T01:01:55.290Z,98114.75
2022-10-26T01:04:24.468Z,98112.72
2022-10-26T01:06:55.418Z,98117.81
2022-10-26T01:09:26.384Z,98116.00
2022-10-26T01:11:56.702Z,98112.19
2022-10-26T01:14:28.452Z,98114.81
2022-10-26T01:17:11.585Z,98104.94
2022-10-26T01:20:28.055Z,98103.13
2022-10-26T01:23:09.044Z,98097.06
2022-10-26T01:26:13.849Z,98089.84
2022-10-26T01:29:25.902Z,98097.06
2022-10-26T01:32:05.969Z,98095.09
2022-10-26T01:34:40.882Z,98095.91
2022-10-26T01:37:15.181Z,98094.09
2022-10-26T01:39:50.774Z,98089.47
2022-10-26T01:42:24.814Z,98070.94
2022-10-26T01:45:02.266Z,98065.69
2022-10-26T01:47:35.513Z,98067.09
2022-10-26T01:50:06.514Z,98065.28
2022-10-26T01:52:36.570Z,98057.78
2022-10-26T01:55:29.500Z,98060.78
2022-10-26T01:58:12.462Z,98065.63
2022-10-26T02:01:00.161Z,98065.28
2022-10-26T02:03:42.955Z,98060.81
2022-10-26T02:06:20.454Z,98053.78
2022-10-26T02:09:08.299Z,98052.59
2022-10-26T02:11:43.952Z,98048.16
2022-10-26T02:14:24.696Z,98060.41
2022-10-26T02:16:58.914Z,98075.34
2022-10-26T02:19:38.452Z,98080.38
2022-10-26T02:22:16.802Z,98081.00
2022-10-26T02:24:47.770Z,98073.13
2022-10-26T02:27:24.784Z,98072.31
2022-10-26T02:29:57.019Z,98075.34
2022-10-26T02:32:31.747Z,98085.41
2022-10-26T02:35:05.261Z,98087.38
2022-10-26T02:37:37.735Z,98084.38
2022-10-26T02:40:13.986Z,98084.19
2022-10-26T02:42:46.919Z,98089.03
2022-10-26T02:45:22.591Z,98086.59
2022-10-26T02:47:52.365Z,98083.00
2022-10-26T02:50:32.497Z,98079.38
2022-10-26T02:53:12.079Z,98059.22
2022-10-26T02:55:50.801Z,98058.41
2022-10-26T02:58:26.918Z,98068.50
2022-10-26T03:00:55.803Z,98070.53
2022-10-26T03:03:25.728Z,98067.91
2022-10-26T03:05:56.076Z,98052.38
2022-10-26T03:08:26.180Z,98044.31
2022-10-26T03:10:54.623Z,98045.91
2022-10-26T03:13:23.098Z,98060.03
2022-10-26T03:15:51.940Z,98069.72
2022-10-26T03:18:20.836Z,98054.00
2022-10-26T03:20:49.405Z,98048.53
2022-10-26T03:23:19.784Z,98052.78
2022-10-26T03:25:49.363Z,98050.16
2022-10-26T03:28:19.092Z,98055.22
2022-10-26T03:30:48.671Z,98056.81
2022-10-26T03:33:18.059Z,98062.69
2022-10-26T03:35:46.574Z,98062.88
2022-10-26T03:38:16.044Z,98054.03
2022-10-26T03:40:48.601Z,98050.75
2022-10-26T03:43:17.079Z,98043.53
2022-10-26T03:45:45.683Z,98036.66
2022-10-26T03:48:15.164Z,98027.81
2022-10-26T03:50:44.488Z,98032.25
2022-10-26T03:53:13.469Z,98042.53
2022-10-26T03:55:47.145Z,98042.72
2022-10-26T03:58:17.256Z,98038.28
2022-10-26T04:00:45.787Z,98035.03
2022-10-26T04:03:14.974Z,98029.19
2022-10-26T04:05:44.561Z,98022.97
2022-10-26T04:08:13.938Z,98022.56
2022-10-26T04:10:43.132Z,98022.72
2022-10-26T04:13:13.401Z,98028.19
2022-10-26T04:15:41.958Z,98027.38
2022-10-26T04:18:13.557Z,98035.63
2022-10-26T04:20:43.174Z,98029.94
2022-10-26T04:23:15.411Z,98031.75
2022-10-26T04:25:45.006Z,98043.41
2022-10-26T04:28:15.992Z,98038.94
2022-10-26T04:30:44.779Z,98043.75
2022-10-26T04:33:14.045Z,98048.56
2022-10-26T04:35:43.983Z,98035.25
2022-10-26T04:38:13.782Z,98034.00
2022-10-26T04:40:42.576Z,98027.94
2022-10-26T04:43:12.836Z,98036.97
2022-10-26T04:45:42.882Z,98035.53
2022-10-26T04:48:14.560Z,98033.56
2022-10-26T04:50:44.178Z,98047.22
2022-10-26T04:53:13.751Z,98045.59
2022-10-26T04:55:42.444Z,98041.78
2022-10-26T04:58:11.085Z,98039.19
2022-10-26T05:00:41.266Z,98036.34
2022-10-26T05:03:12.103Z,98037.16
2022-10-26T05:05:41.623Z,98033.34
2022-10-26T05:08:10.727Z,98036.78
2022-10-26T05:10:39.403Z,98038.22
2022-10-26T05:13:08.180Z,98045.44
2022-10-26T05:15:38.005Z,98040.22
2022-10-26T05:18:09.162Z,98054.94
2022-10-26T05:20:38.884Z,98061.78
2022-10-26T05:23:11.673Z,98060.75
2022-10-26T05:25:40.854Z,98069.25
2022-10-26T05:28:14.377Z,98067.25
2022-10-26T05:30:45.361Z,98067.06
2022-10-26T05:33:16.910Z,98075.09
2022-10-26T05:35:45.626Z,98069.44
2022-10-26T05:38:17.967Z,98074.50
2022-10-26T05:40:49.952Z,98080.34
2022-10-26T05:43:19.456Z,98088.41
2022-10-26T05:45:49.689Z,98092.81
2022-10-26T05:48:19.845Z,98096.44
2022-10-26T05:50:48.860Z,98092.81
2022-10-26T05:53:17.767Z,98091.78
2022-10-26T05:55:48.518Z,98097.84
2022-10-26T05:58:18.400Z,98095.06
2022-10-26T06:01:15.048Z,98110.94
2022-10-26T06:04:11.209Z,98115.38
2022-10-26T06:06:47.293Z,98108.97
2022-10-26T06:09:19.105Z,98108.75
2022-10-26T06:14:20.422Z,98123.25
2022-10-26T06:17:10.520Z,98127.50
2022-10-26T06:19:58.513Z,98135.94
2022-10-26T06:22:46.016Z,98135.56
2022-10-26T06:25:29.897Z,98148.47
2022-10-26T06:28:17.960Z,98157.13
2022-10-26T06:30:46.780Z,98158.13
2022-10-26T06:33:28.542Z,98167.44
2022-10-26T06:36:18.484Z,98167.59
2022-10-26T06:38:49.893Z,98173.84
2022-10-26T06:41:20.372Z,98176.28
2022-10-26T06:43:51.862Z,98167.44
2022-10-26T06:46:39.155Z,98165.59
2022-10-26T06:49:18.780Z,98164.44
2022-10-26T06:52:00.126Z,98173.09
2022-10-26T06:54:49.574Z,98176.72
2022-10-26T06:57:20.870Z,98185.16
2022-10-26T06:59:54.804Z,98177.31
2022-10-26T07:02:25.319Z,98174.25
2022-10-26T07:04:54.223Z,98190.78
2022-10-26T07:07:28.069Z,98207.31
2022-10-26T07:09:58.248Z,98198.25
2022-10-26T07:12:30.829Z,98201.53
2022-10-26T07:15:02.161Z,98193.03
2022-10-26T07:17:31.693Z,98201.25
2022-10-26T07:20:00.225Z,98202.69
2022-10-26T07:22:30.144Z,98201.91
2022-10-26T07:25:02.069Z,98208.13
2022-10-26T07:27:31.727Z,98194.03
2022-10-26T07:30:00.172Z,98196.66
2022-10-26T07:32:29.018Z,98200.88
2022-10-26T07:34:58.079Z,98202.50
2022-10-26T07:37:26.797Z,98213.38
2022-10-26T07:39:56.727Z,98213.38
2022-10-26T07:42:26.252Z,98212.38
2022-10-26T07:44:55.787Z,98209.56
2022-10-26T07:47:24.932Z,98227.72
2022-10-26T07:49:54.135Z,98226.09
2022-10-26T07:52:22.727Z,98235.56
2022-10-26T07:54:51.187Z,98237.81
2022-10-26T07:57:21.780Z,98235.19
2022-10-26T07:59:51.452Z,98233.19
2022-10-26T08:02:20.037Z,98235.63
2022-10-26T08:04:48.616Z,98238.03
2022-10-26T08:07:17.239Z,98238.47
2022-10-26T08:09:46.357Z,98242.56
2022-10-26T08:12:16.636Z,98247.22
2022-10-26T08:14:47.170Z,98240.19
2022-10-26T08:17:15.688Z,98242.41
2022-10-26T08:19:44.229Z,98246.50
2022-10-26T08:24:47.075Z,98256.75
2022-10-26T08:27:16.636Z,98253.59
2022-10-26T08:29:46.899Z,98256.44
2022-10-26T08:32:15.498Z,98267.78
2022-10-26T08:34:44.013Z,98257.34
2022-10-26T08:37:12.536Z,98272.13
2022-10-26T08:39:41.032Z,98265.31
2022-10-26T08:42:24.028Z,98261.72
2022-10-26T08:45:02.535Z,98268.00
2022-10-26T08:47:37.258Z,98270.84
2022-10-26T08:50:14.057Z,98278.56
2022-10-26T08:52:52.514Z,98283.03
2022-10-26T08:55:30.679Z,98276.88
2022-10-26T08:58:06.674Z,98279.16
2022-10-26T09:00:37.126Z,98282.41
2022-10-26T09:03:16.326Z,98282.84
2022-10-26T09:06:03.422Z,98293.78
2022-10-26T09:08:42.973Z,98298.31
2022-10-26T09:11:27.733Z,98297.38
2022-10-26T09:14:09.954Z,98301.00
2022-10-26T09:16:57.283Z,98319.00
2022-10-26T09:20:01.906Z,98316.41
2022-10-26T09:22:47.061Z,98331.00
2022-10-26T09:25:22.325Z,98332.63
2022-10-26T09:27:56.833Z,98334.44
2022-10-26T09:30:26.127Z,98342.75
2022-10-26T09:33:01.083Z,98344.16
2022-10-26T09:35:45.519Z,98347.00
2022-10-26T09:38:21.962Z,98362.19
2022-10-26T09:41:00.033Z,98354.28
2022-10-26T09:43:37.233Z,98356.53
2022-10-26T09:46:06.598Z,98358.97
2022-10-26T09:48:43.944Z,98367.84
2022-10-26T09:51:12.957Z,98359.75
2022-10-26T09:53:41.496Z,98373.31
2022-10-26T09:56:13.378Z,98364.59
2022-10-26T09:58:49.956Z,98360.94
2022-10-26T10:01:29.877Z,98365.78
2022-10-26T10:04:21.210Z,98363.13
2022-10-26T10:06:52.201Z,98371.22
2022-10-26T10:09:23.242Z,98370.59
2022-10-26T10:11:56.738Z,98378.50
2022-10-26T10:14:28.178Z,98380.47
2022-10-26T10:16:59.780Z,98371.78
2022-10-26T10:19:32.436Z,98371.34
2022-10-26T10:22:10.797Z,98377.59
2022-10-26T10:24:42.411Z,98376.38
2022-10-26T10:27:20.166Z,98372.91
2022-10-26T10:29:51.017Z,98376.72
2022-10-26T10:32:22.131Z,98371.88
2022-10-26T10:34:54.922Z,98379.59
2022-10-26T10:37:29.354Z,98386.88
2022-10-26T10:40:00.546Z,98381.19
2022-10-26T10:42:33.522Z,98382.38
2022-10-26T10:45:04.788Z,98380.91
2022-10-26T10:47:36.152Z,98388.44
2022-10-26T10:50:18.523Z,98386.38
2022-10-26T10:52:48.342Z,98378.03
2022-10-26T10:55:24.032Z,98381.66
2022-10-26T10:58:10.029Z,98374.94
2022-10-26T11:00:39.445Z,98375.31
2022-10-26T11:03:34.945Z,98366.38
2022-10-26T11:06:16.514Z,98362.31
2022-10-26T11:08:54.552Z,98368.16
2022-10-26T11:11:32.379Z,98372.63
2022-10-26T11:14:07.692Z,98363.84
2022-10-26T11:16:44.589Z,98370.31
2022-10-26T11:19:28.197Z,98369.88
2022-10-26T11:21:58.731Z,98367.81
2022-10-26T11:24:35.231Z,98369.81
2022-10-26T11:27:13.326Z,98368.16
2022-10-26T11:29:51.408Z,98370.97
2022-10-26T11:32:25.196Z,98369.50
2022-10-26T11:35:02.813Z,98380.59
2022-10-26T11:37:46.759Z,98375.50
2022-10-26T11:40:29.755Z,98369.97
2022-10-26T11:43:15.241Z,98379.53
2022-10-26T11:45:51.899Z,98382.53
2022-10-26T11:48:25.949Z,98377.81
2022-10-26T11:50:59.036Z,98361.69
2022-10-26T11:53:37.049Z,98365.50
2022-10-26T11:56:15.280Z,98364.88
2022-10-26T11:58:47.024Z,98366.84
2022-10-26T12:01:18.603Z,98369.47
2022-10-26T12:03:53.664Z,98369.84
2022-10-26T12:06:29.439Z,98374.13
2022-10-26T12:09:08.914Z,98372.22
2022-10-26T12:11:47.358Z,98373.84
2022-10-26T12:14:25.140Z,98379.25
2022-10-26T12:17:05.110Z,98373.53
2022-10-26T12:19:44.479Z,98376.97
2022-10-26T12:22:17.563Z,98379.19
2022-10-26T12:25:09.000Z,98375.69
2022-10-26T12:27:55.210Z,98384.75
2022-10-26T12:30:31.071Z,98378.81
2022-10-26T12:33:02.014Z,98387.94
2022-10-26T12:35:43.269Z,98399.69
2022-10-26T12:38:59.493Z,98402.44
2022-10-26T12:41:30.552Z,98405.47
2022-10-26T12:44:39.016Z,98397.88
2022-10-26T12:47:08.923Z,98391.38
2022-10-26T12:50:02.511Z,98383.00
2022-10-26T12:52:53.677Z,98384.75
2022-10-26T12:56:10.091Z,98400.47
2022-10-26T12:59:20.820Z,98403.25
2022-10-26T13:02:38.804Z,98395.00
2022-10-26T13:06:18.505Z,98397.56
2022-10-26T13:08:56.221Z,98397.03
2022-10-26T13:11:33.684Z,98402.78
2022-10-26T13:14:06.869Z,98401.56
2022-10-26T13:16:36.731Z,98398.44
2022-10-26T13:19:06.907Z,98404.31
2022-10-26T13:21:52.617Z,98402.81
2022-10-26T13:24:27.287Z,98394.78
2022-10-26T13:27:40.690Z,98401.25
2022-10-26T13:30:46.809Z,98411.38
2022-10-26T13:33:35.002Z,98411.16
2022-10-26T13:36:20.141Z,98413.81
2022-10-26T13:38:50.171Z,98418.66
2022-10-26T13:41:33.587Z,98416.81
2022-10-26T13:44:08.270Z,98413.13
2022-10-26T13:46:43.070Z,98411.09
2022-10-26T13:49:36.218Z,98419.41
2022-10-26T13:52:17.256Z,98419.97
2022-10-26T13:54:52.744Z,98418.94
2022-10-26T13:57:29.958Z,98419.63
2022-10-26T14:00:04.148Z,98430.94
2022-10-26T14:02:34.765Z,98418.59
2022-10-26T14:05:06.480Z,98420.00
2022-10-26T14:07:43.829Z,98424.50
2022-10-26T14:10:29.099Z,98427.13
2022-10-26T14:12:59.557Z,98423.53
2022-10-26T14:15:32.693Z,98428.94
2022-10-26T14:18:03.957Z,98435.72
2022-10-26T14:20:34.092Z,98434.69
2022-10-26T14:23:04.030Z,98432.19
2022-10-26T14:25:42.822Z,98431.38
2022-10-26T14:28:29.685Z,98441.38
2022-10-26T14:31:19.439Z,98445.66
2022-10-26T14:33:49.084Z,98442.53
2022-10-26T14:36:22.523Z,98452.34
2022-10-26T14:39:00.171Z,98452.34
2022-10-26T14:41:30.785Z,98459.25
2022-10-26T14:44:01.546Z,98464.56
2022-10-26T14:46:36.643Z,98473.56
2022-10-26T14:49:06.280Z,98479.69
2022-10-26T14:51:38.163Z,98471.13
2022-10-26T14:54:24.274Z,98480.94
2022-10-26T14:56:54.209Z,98482.69
2022-10-26T14:59:27.632Z,98480.25
2022-10-26T15:01:58.642Z,98491.22
2022-10-26T15:04:33.570Z,98493.19
2022-10-26T15:07:19.146Z,98494.44
2022-10-26T15:09:58.519Z,98492.50
2022-10-26T15:12:36.175Z,98500.22
2022-10-26T15:15:24.199Z,98512.06
2022-10-26T15:17:56.685Z,98510.75
2022-10-26T15:20:30.096Z,98518.00
2022-10-26T15:23:01.886Z,98520.41
2022-10-26T15:25:36.219Z,98520.84
2022-10-26T15:28:13.070Z,98529.31
2022-10-26T15:31:01.083Z,98530.22
2022-10-26T15:33:30.725Z,98538.31
2022-10-26T15:36:26.117Z,98535.84
2022-10-26T15:38:55.771Z,98541.13
2022-10-26T15:41:30.985Z,98540.38
2022-10-26T15:44:06.011Z,98546.41
2022-10-26T15:46:39.888Z,98544.94
2022-10-26T15:49:17.501Z,98552.06
2022-10-26T15:51:48.019Z,98548.91
2022-10-26T15:54:18.087Z,98555.59
2022-10-26T15:56:48.645Z,98544.41
2022-10-26T15:59:19.865Z,98547.28
2022-10-26T16:01:48.597Z,98548.34
2022-10-26T16:04:17.886Z,98560.16
2022-10-26T16:06:47.354Z,98554.94
2022-10-26T16:09:20.303Z,98559.47
2022-10-26T16:11:51.051Z,98557.09
2022-10-26T16:14:19.735Z,98549.81
2022-10-26T16:16:48.973Z,98556.41
2022-10-26T16:19:30.455Z,98558.88
2022-10-26T16:22:00.082Z,98562.19
2022-10-26T16:24:30.101Z,98562.81
2022-10-26T16:27:00.054Z,98567.34
2022-10-26T16:29:29.248Z,98570.84
2022-10-26T16:31:58.065Z,98574.94
2022-10-26T16:34:26.576Z,98585.31
2022-10-26T16:36:55.280Z,98589.44
2022-10-26T16:39:23.756Z,98603.31
2022-10-26T16:41:52.478Z,98603.34
2022-10-26T16:44:22.348Z,98604.78
2022-10-26T16:46:51.162Z,98606.84
2022-10-26T16:49:19.610Z,98605.06
2022-10-26T16:51:48.065Z,98603.84
2022-10-26T16:54:17.323Z,98616.22
2022-10-26T16:56:45.778Z,98611.38
2022-10-26T16:59:14.416Z,98616.69
2022-10-26T17:01:44.435Z,98620.75
2022-10-26T17:04:13.366Z,98630.50
2022-10-26T17:06:41.906Z,98640.66
2022-10-26T17:09:10.442Z,98641.09
2022-10-26T17:11:39.319Z,98640.28
2022-10-26T17:14:07.756Z,98653.69
2022-10-26T17:16:36.167Z,98655.31
2022-10-26T17:19:06.027Z,98661.84
2022-10-26T17:21:36.618Z,98663.44
2022-10-26T17:24:06.176Z,98669.13
2022-10-26T17:26:34.808Z,98670.34
2022-10-26T17:29:03.337Z,98677.25
2022-10-26T17:31:32.198Z,98681.47
2022-10-26T17:34:01.594Z,98682.28
2022-10-26T17:36:31.771Z,98690.59
2022-10-26T17:39:00.936Z,98693.81
2022-10-26T17:41:29.598Z,98694.22
2022-10-26T17:43:58.431Z,98706.41
2022-10-26T17:46:28.733Z,98703.72
2022-10-26T17:48:58.654Z,98706.16
2022-10-26T17:51:29.092Z,98715.66
2022-10-26T17:54:00.404Z,98718.91
2022-10-26T17:56:31.688Z,98719.72
2022-10-26T17:59:03.950Z,98722.50
2022-10-26T18:01:33.492Z,98727.97
2022-10-26T18:04:05.068Z,98729.00
2022-10-26T18:06:33.846Z,98722.63
2022-10-26T18:09:04.822Z,98729.44
2022-10-26T18:11:33.517Z,98738.38
2022-10-26T18:14:02.688Z,98744.22
2022-10-26T18:16:31.985Z,98739.19
2022-10-26T18:19:03.653Z,98740.75
2022-10-26T18:21:37.915Z,98749.22
2022-10-26T18:24:10.284Z,98747.41
2022-10-26T18:26:39.436Z,98754.69
2022-10-26T18:29:08.968Z,98764.78
2022-10-26T18:31:37.719Z,98767.44
2022-10-26T18:34:08.117Z,98776.53
2022-10-26T18:39:09.278Z,98773.75
2022-10-26T18:41:37.884Z,98783.25
2022-10-26T18:44:07.093Z,98784.22
2022-10-26T18:46:43.019Z,98786.25
2022-10-26T18:49:14.074Z,98795.75
2022-10-26T18:51:44.186Z,98790.59
2022-10-26T18:54:14.922Z,98795.22
2022-10-26T18:56:44.110Z,98795.44
2022-10-26T18:59:13.162Z,98794.63
2022-10-26T19:01:42.480Z,98797.63
2022-10-26T19:04:13.382Z,98803.69
2022-10-26T19:06:47.839Z,98806.44
2022-10-26T19:09:19.845Z,98808.03
2022-10-26T19:11:48.489Z,98812.09
2022-10-26T19:14:17.129Z,98817.09
2022-10-26T19:16:47.529Z,98814.59
2022-10-26T19:19:17.983Z,98820.19
2022-10-26T19:21:49.281Z,98824.41
2022-10-26T19:24:24.270Z,98823.97
2022-10-26T19:26:54.562Z,98830.44
2022-10-26T19:29:24.116Z,98826.81
2022-10-26T19:31:54.391Z,98835.69
2022-10-26T19:34:24.218Z,98839.22
2022-10-26T19:36:52.810Z,98837.16
2022-10-26T19:39:23.402Z,98837.16
2022-10-26T19:41:53.078Z,98829.84
2022-10-26T19:44:25.485Z,98841.00
2022-10-26T19:46:55.206Z,98839.03
2022-10-26T19:49:25.120Z,98842.25
2022-10-26T19:51:54.820Z,98849.69
2022-10-26T19:54:25.462Z,98852.25
2022-10-26T19:56:54.386Z,98849.00
2022-10-26T19:59:23.365Z,98857.88
2022-10-26T20:01:52.369Z,98856.97
2022-10-26T20:04:22.208Z,98853.88
2022-10-26T20:06:50.833Z,98865.19
2022-10-26T20:09:19.498Z,98864.19
2022-10-26T20:11:49.911Z,98872.44
2022-10-26T20:14:18.588Z,98868.56
2022-10-26T20:16:47.684Z,98874.16
2022-10-26T20:19:16.205Z,98874.50
2022-10-26T20:21:45.455Z,98877.78
2022-10-26T20:24:14.038Z,98875.88
2022-10-26T20:26:42.638Z,98871.63
2022-10-26T20:29:13.384Z,98875.59
2022-10-26T20:31:42.076Z,98877.59
2022-10-26T20:34:11.284Z,98872.97
2022-10-26T20:36:40.640Z,98877.94
2022-10-26T20:39:10.218Z,98882.63
2022-10-26T20:41:46.351Z,98883.47
2022-10-26T20:44:26.898Z,98886.28
2022-10-26T20:46:57.108Z,98883.00
2022-10-26T20:49:27.285Z,98888.97
2022-10-26T20:52:20.872Z,98883.63
2022-10-26T20:55:01.430Z,98886.41
2022-10-26T20:57:34.162Z,98894.03
2022-10-26T21:00:09.534Z,98892.84
2022-10-26T21:02:38.989Z,98896.00
2022-10-26T21:05:09.162Z,98890.47
2022-10-26T21:07:38.729Z,98895.06
2022-10-26T21:10:09.875Z,98894.00
2022-10-26T21:12:39.205Z,98895.63
2022-10-26T21:15:11.985Z,98907.72
2022-10-26T21:17:42.602Z,98905.81
2022-10-26T21:20:12.934Z,98916.66
2022-10-26T21:22:42.238Z,98916.72
2022-10-26T21:25:12.194Z,98915.94
2022-10-26T21:27:43.088Z,98921.97
2022-10-26T21:30:16.553Z,98922.16
2022-10-26T21:32:45.781Z,98921.16
2022-10-26T21:35:14.906Z,98922.16
2022-10-26T21:37:44.554Z,98932.06
2022-10-26T21:40:15.797Z,98923.53
2022-10-26T21:42:51.188Z,98925.53
2022-10-26T21:45:22.484Z,98929.00
2022-10-26T21:47:54.528Z,98918.75
2022-10-26T21:50:24.162Z,98926.28
2022-10-26T21:52:55.737Z,98922.31
2022-10-26T21:55:24.991Z,98920.41
2022-10-26T21:57:55.948Z,98918.66
2022-10-26T22:00:27.384Z,98924.50
2022-10-26T22:02:57.101Z,98929.59
2022-10-26T22:05:26.340Z,98924.72
2022-10-26T22:07:56.066Z,98926.50
2022-10-26T22:10:25.462Z,98923.41
2022-10-26T22:12:54.484Z,98927.00
2022-10-26T22:15:24.552Z,98919.31
2022-10-26T22:17:56.007Z,98925.41
2022-10-26T22:20:25.540Z,98930.19
2022-10-26T22:22:55.278Z,98919.38
2022-10-26T22:25:24.667Z,98918.22
2022-10-26T22:27:54.938Z,98911.16
2022-10-26T22:30:25.089Z,98908.75
2022-10-26T22:32:55.575Z,98916.25
2022-10-26T22:35:30.063Z,98927.56
2022-10-26T22:37:59.510Z,98915.28
2022-10-26T22:40:29.102Z,98920.84
2022-10-26T22:42:58.324Z,98922.50
2022-10-26T22:45:28.590Z,98924.00
2022-10-26T22:47:59.170Z,98921.88
2022-10-26T22:50:29.464Z,98923.03
2022-10-26T22:52:59.639Z,98917.97
2022-10-26T22:55:29.783Z,98918.16
2022-10-26T22:57:59.696Z,98918.66
2022-10-26T23:00:29.836Z,98912.59
2022-10-26T23:03:01.502Z,98917.69
2022-10-26T23:05:30.810Z,98918.03
2022-10-26T23:08:00.557Z,98914.25
2022-10-26T23:10:30.318Z,98917.69
2022-10-26T23:12:59.430Z,98920.00
2022-10-26T23:15:31.947Z,98926.88
2022-10-26T23:18:02.395Z,98921.28
2022-10-26T23:20:34.583Z,98924.91
2022-10-26T23:23:04.743Z,98921.34
2022-10-26T23:25:34.928Z,98920.19
2022-10-26T23:28:04.195Z,98918.75
2022-10-26T23:30:33.001Z,98914.66
2022-10-26T23:33:03.846Z,98919.72
2022-10-26T23:35:33.571Z,98915.81
2022-10-26T23:38:02.851Z,98922.06
2022-10-26T23:40:32.271Z,98926.63
2022-10-26T23:43:01.353Z,98930.38
2022-10-26T23:45:30.269Z,98931.22
2022-10-26T23:48:00.152Z,98936.25
2022-10-26T23:50:31.276Z,98931.88
2022-10-26T23:53:00.788Z,98940.22
2022-10-26T23:55:31.372Z,98940.88
2022-10-26T23:58:00.284Z,98938.59
